createdAt,value
2023-05-15T00:01:26.309Z,98624.06
2023-05-15T00:03:53.063Z,98620.75
2023-05-15T00:06:20.086Z,98618.22
2023-05-15T00:08:46.688Z,98616.81
2023-05-15T00:11:13.412Z,98618.81
2023-05-15T00:13:40.006Z,98610.97
2023-05-15T00:16:08.569Z,98610.97
2023-05-15T00:18:35.646Z,98611.28
2023-05-15T00:21:02.388Z,98609.72
2023-05-15T00:23:29.015Z,98611.84
2023-05-15T00:25:55.654Z,98610.44
2023-05-15T00:28:22.295Z,98605.44
2023-05-15T00:30:48.987Z,98608.38
2023-05-15T00:33:15.696Z,98605.16
2023-05-15T00:35:42.450Z,98596.63
2023-05-15T00:38:09.098Z,98602.25
2023-05-15T00:40:37.714Z,98600.16
2023-05-15T00:43:06.198Z,98593.63
2023-05-15T00:45:33.058Z,98585.38
2023-05-15T00:48:01.587Z,98583.97
2023-05-15T00:50:29.359Z,98598.22
2023-05-15T00:52:56.175Z,98591.81
2023-05-15T00:55:23.146Z,98588.72
2023-05-15T00:57:51.581Z,98580.34
2023-05-15T01:00:18.772Z,98585.25
2023-05-15T01:02:46.539Z,98589.16
2023-05-15T01:05:13.536Z,98585.09
2023-05-15T01:08:01.244Z,98581.19
2023-05-15T01:10:28.558Z,98582.59
2023-05-15T01:12:55.873Z,98579.22
2023-05-15T01:15:23.760Z,98580.63
2023-05-15T01:17:51.737Z,98582.03
2023-05-15T01:20:19.657Z,98580.06
2023-05-15T01:23:09.701Z,98579.63
2023-05-15T01:25:45.835Z,98578.13
2023-05-15T01:28:18.661Z,98574.84
2023-05-15T01:30:48.323Z,98575.28
2023-05-15T01:33:26.070Z,98576.66
2023-05-15T01:36:26.214Z,98573.44
2023-05-15T01:39:01.190Z,98570.09
2023-05-15T01:41:51.443Z,98574.69
2023-05-15T01:44:30.418Z,98566.03
2023-05-15T01:47:04.860Z,98573.41
2023-05-15T01:49:32.732Z,98575.53
2023-05-15T01:52:25.643Z,98571.44
2023-05-15T01:54:54.658Z,98571.00
2023-05-15T01:57:23.447Z,98566.97
2023-05-15T01:59:51.789Z,98573.50
2023-05-15T02:02:19.673Z,98569.44
2023-05-15T02:04:47.658Z,98574.31
2023-05-15T02:07:16.223Z,98565.94
2023-05-15T02:09:44.261Z,98566.91
2023-05-15T02:12:11.350Z,98560.19
2023-05-15T02:14:41.035Z,98568.41
2023-05-15T02:17:08.001Z,98560.72
2023-05-15T02:19:34.721Z,98566.28
2023-05-15T02:22:01.357Z,98564.84
2023-05-15T02:24:27.953Z,98561.53
2023-05-15T02:27:29.402Z,98563.75
2023-05-15T02:30:17.705Z,98562.31
2023-05-15T02:33:19.748Z,98556.34
2023-05-15T02:35:47.004Z,98555.50
2023-05-15T02:38:17.195Z,98552.97
2023-05-15T02:40:46.372Z,98552.25
2023-05-15T02:43:14.166Z,98549.59
2023-05-15T02:45:42.014Z,98547.91
2023-05-15T02:48:09.453Z,98553.50
2023-05-15T02:50:36.299Z,98546.28
2023-05-15T02:53:07.548Z,98538.19
2023-05-15T02:55:34.505Z,98539.75
2023-05-15T02:58:01.264Z,98538.78
2023-05-15T03:00:28.056Z,98540.69
2023-05-15T03:02:54.835Z,98536.50
2023-05-15T03:05:21.618Z,98540.97
2023-05-15T03:07:48.315Z,98530.41
2023-05-15T03:10:15.021Z,98532.19
2023-05-15T03:12:41.669Z,98531.38
2023-05-15T03:15:08.676Z,98527.88
2023-05-15T03:17:35.334Z,98532.56
2023-05-15T03:20:01.960Z,98522.16
2023-05-15T03:22:28.641Z,98531.19
2023-05-15T03:24:55.231Z,98527.56
2023-05-15T03:27:21.944Z,98530.09
2023-05-15T03:29:50.942Z,98521.03
2023-05-15T03:32:17.887Z,98518.66
2023-05-15T03:34:44.782Z,98519.50
2023-05-15T03:37:11.469Z,98522.53
2023-05-15T03:39:38.196Z,98517.50
2023-05-15T03:42:05.121Z,98523.88
2023-05-15T03:44:31.791Z,98521.78
2023-05-15T03:46:58.454Z,98514.63
2023-05-15T03:49:25.150Z,98517.53
2023-05-15T03:51:52.014Z,98517.66
2023-05-15T03:54:18.723Z,98517.66
2023-05-15T03:56:45.501Z,98525.75
2023-05-15T03:59:12.064Z,98522.25
2023-05-15T04:01:50.394Z,98533.50
2023-05-15T04:04:25.348Z,98520.81
2023-05-15T04:06:52.066Z,98521.53
2023-05-15T04:09:18.685Z,98516.13
2023-05-15T04:11:46.843Z,98518.66
2023-05-15T04:14:13.795Z,98515.53
2023-05-15T04:16:40.877Z,98520.88
2023-05-15T04:19:07.559Z,98513.22
2023-05-15T04:21:34.231Z,98515.03
2023-05-15T04:24:00.951Z,98515.59
2023-05-15T04:26:27.585Z,98517.28
2023-05-15T04:29:03.332Z,98512.00
2023-05-15T04:31:31.596Z,98510.31
2023-05-15T04:33:58.473Z,98509.22
2023-05-15T04:36:25.142Z,98511.88
2023-05-15T04:38:51.841Z,98515.09
2023-05-15T04:41:18.775Z,98518.56
2023-05-15T04:43:46.050Z,98518.00
2023-05-15T04:46:13.009Z,98520.38
2023-05-15T04:48:39.800Z,98520.13
2023-05-15T04:51:07.569Z,98515.16
2023-05-15T04:53:34.179Z,98508.22
2023-05-15T04:56:00.763Z,98511.59
2023-05-15T04:58:27.398Z,98516.88
2023-05-15T05:00:53.991Z,98514.16
2023-05-15T05:03:20.647Z,98516.13
2023-05-15T05:05:47.274Z,98507.13
2023-05-15T05:08:13.943Z,98512.00
2023-05-15T05:10:40.673Z,98508.69
2023-05-15T05:13:07.308Z,98505.06
2023-05-15T05:15:33.920Z,98504.81
2023-05-15T05:18:00.594Z,98500.66
2023-05-15T05:20:27.239Z,98496.75
2023-05-15T05:22:54.097Z,98497.34
2023-05-15T05:25:20.715Z,98505.72
2023-05-15T05:27:47.341Z,98498.91
2023-05-15T05:30:14.253Z,98506.59
2023-05-15T05:32:41.071Z,98502.97
2023-05-15T05:35:08.186Z,98496.13
2023-05-15T05:37:34.912Z,98508.25
2023-05-15T05:40:01.618Z,98500.75
2023-05-15T05:42:28.203Z,98497.41
2023-05-15T05:44:55.096Z,98499.78
2023-05-15T05:47:21.741Z,98496.31
2023-05-15T05:49:48.488Z,98498.56
2023-05-15T05:52:16.702Z,98496.34
2023-05-15T05:54:45.831Z,98488.53
2023-05-15T05:57:12.483Z,98498.00
2023-05-15T05:59:39.096Z,98503.34
2023-05-15T06:02:06.171Z,98500.81
2023-05-15T06:04:34.124Z,98497.34
2023-05-15T06:07:01.426Z,98491.91
2023-05-15T06:09:28.300Z,98492.44
2023-05-15T06:11:55.002Z,98494.09
2023-05-15T06:14:21.581Z,98487.97
2023-05-15T06:16:48.267Z,98483.44
2023-05-15T06:19:15.089Z,98484.41
2023-05-15T06:21:41.811Z,98491.22
2023-05-15T06:24:08.548Z,98487.84
2023-05-15T06:26:35.166Z,98481.97
2023-05-15T06:29:01.836Z,98484.75
2023-05-15T06:31:28.566Z,98485.53
2023-05-15T06:33:55.445Z,98486.81
2023-05-15T06:36:22.127Z,98478.50
2023-05-15T06:38:48.726Z,98479.16
2023-05-15T06:41:15.316Z,98475.94
2023-05-15T06:43:41.895Z,98487.50
2023-05-15T06:46:08.540Z,98489.31
2023-05-15T06:48:36.699Z,98487.00
2023-05-15T06:51:03.604Z,98492.00
2023-05-15T06:53:30.583Z,98484.94
2023-05-15T06:55:57.576Z,98487.59
2023-05-15T06:58:24.852Z,98476.44
2023-05-15T07:00:53.448Z,98483.56
2023-05-15T07:03:20.982Z,98476.75
2023-05-15T07:05:47.595Z,98469.81
2023-05-15T07:08:14.262Z,98467.84
2023-05-15T07:10:40.969Z,98472.38
2023-05-15T07:13:07.699Z,98464.13
2023-05-15T07:15:34.376Z,98465.09
2023-05-15T07:18:01.051Z,98472.66
2023-05-15T07:20:30.993Z,98462.78
2023-05-15T07:22:58.975Z,98458.88
2023-05-15T07:25:26.001Z,98455.28
2023-05-15T07:27:53.091Z,98458.59
2023-05-15T07:30:19.919Z,98457.66
2023-05-15T07:32:46.865Z,98462.03
2023-05-15T07:35:13.533Z,98455.72
2023-05-15T07:37:40.248Z,98454.13
2023-05-15T07:40:07.833Z,98450.81
2023-05-15T07:42:34.537Z,98448.31
2023-05-15T07:45:01.206Z,98451.66
2023-05-15T07:47:27.837Z,98448.16
2023-05-15T07:49:54.459Z,98448.41
2023-05-15T07:52:21.023Z,98435.97
2023-05-15T07:54:47.687Z,98432.44
2023-05-15T07:57:14.328Z,98433.03
2023-05-15T07:59:41.029Z,98434.59
2023-05-15T08:02:07.744Z,98435.69
2023-05-15T08:04:34.474Z,98430.00
2023-05-15T08:07:01.201Z,98430.06
2023-05-15T08:09:27.784Z,98432.53
2023-05-15T08:12:17.588Z,98425.75
2023-05-15T08:14:44.290Z,98423.09
2023-05-15T08:17:10.930Z,98418.91
2023-05-15T08:19:37.509Z,98424.75
2023-05-15T08:22:04.299Z,98414.94
2023-05-15T08:24:31.017Z,98412.91
2023-05-15T08:26:57.697Z,98416.97
2023-05-15T08:29:24.276Z,98407.44
2023-05-15T08:31:50.943Z,98405.50
2023-05-15T08:34:17.583Z,98409.25
2023-05-15T08:36:45.178Z,98398.81
2023-05-15T08:39:11.768Z,98405.66
2023-05-15T08:41:47.288Z,98400.97
2023-05-15T08:44:14.764Z,98411.38
2023-05-15T08:46:41.600Z,98409.41
2023-05-15T08:49:27.610Z,98405.00
2023-05-15T08:51:56.327Z,98403.06
2023-05-15T08:54:23.071Z,98394.28
2023-05-15T08:56:49.942Z,98399.19
2023-05-15T08:59:16.720Z,98401.59
2023-05-15T09:01:43.458Z,98395.03
2023-05-15T09:04:10.227Z,98400.00
2023-05-15T09:06:38.336Z,98392.34
2023-05-15T09:09:05.887Z,98391.13
2023-05-15T09:11:33.097Z,98395.28
2023-05-15T09:14:00.937Z,98397.09
2023-05-15T09:16:28.220Z,98392.81
2023-05-15T09:18:54.996Z,98389.16
2023-05-15T09:21:34.014Z,98386.97
2023-05-15T09:24:19.044Z,98382.06
2023-05-15T09:27:01.326Z,98380.19
2023-05-15T09:29:29.679Z,98378.63
2023-05-15T09:31:57.128Z,98384.22
2023-05-15T09:34:31.583Z,98384.53
2023-05-15T09:36:58.774Z,98382.03
2023-05-15T09:39:25.772Z,98385.97
2023-05-15T09:41:52.939Z,98385.44
2023-05-15T09:44:26.900Z,98385.44
2023-05-15T09:46:53.929Z,98390.97
2023-05-15T09:49:20.793Z,98389.56
2023-05-15T09:51:49.912Z,98385.19
2023-05-15T09:54:19.824Z,98380.44
2023-05-15T09:56:47.707Z,98379.13
2023-05-15T09:59:16.087Z,98377.19
2023-05-15T10:01:47.023Z,98376.16
2023-05-15T10:04:14.327Z,98373.84
2023-05-15T10:06:43.354Z,98361.53
2023-05-15T10:09:10.920Z,98365.69
2023-05-15T10:11:39.819Z,98363.69
2023-05-15T10:14:09.537Z,98363.03
2023-05-15T10:16:37.858Z,98364.84
2023-05-15T10:19:10.374Z,98364.84
2023-05-15T10:21:40.557Z,98355.41
2023-05-15T10:24:08.212Z,98358.41
2023-05-15T10:26:40.038Z,98356.66
2023-05-15T10:29:11.437Z,98355.84
2023-05-15T10:31:39.748Z,98352.16
2023-05-15T10:34:07.386Z,98345.81
2023-05-15T10:36:35.932Z,98349.28
2023-05-15T10:39:04.990Z,98334.06
2023-05-15T10:41:35.925Z,98337.81
2023-05-15T10:44:03.036Z,98340.19
2023-05-15T10:46:33.812Z,98337.88
2023-05-15T10:49:01.804Z,98331.16
2023-05-15T10:51:30.334Z,98331.66
2023-05-15T10:53:57.697Z,98328.34
2023-05-15T10:56:30.917Z,98332.13
2023-05-15T10:58:57.848Z,98325.97
2023-05-15T11:01:25.623Z,98331.53
2023-05-15T11:03:54.579Z,98323.47
2023-05-15T11:06:30.866Z,98314.78
2023-05-15T11:09:19.914Z,98316.22
2023-05-15T11:11:53.009Z,98315.16
2023-05-15T11:14:19.901Z,98316.34
2023-05-15T11:16:55.691Z,98313.91
2023-05-15T11:19:22.967Z,98308.16
2023-05-15T11:22:17.277Z,98314.81
2023-05-15T11:25:13.380Z,98313.09
2023-05-15T11:27:41.674Z,98311.03
2023-05-15T11:30:09.675Z,98310.22
2023-05-15T11:32:57.447Z,98312.69
2023-05-15T11:35:26.805Z,98302.16
2023-05-15T11:38:20.136Z,98301.50
2023-05-15T11:40:58.689Z,98294.88
2023-05-15T11:43:26.836Z,98306.69
2023-05-15T11:45:58.614Z,98295.28
2023-05-15T11:48:31.561Z,98302.34
2023-05-15T11:50:58.382Z,98298.22
2023-05-15T11:53:25.749Z,98299.44
2023-05-15T11:55:54.383Z,98306.88
2023-05-15T11:58:23.035Z,98315.75
2023-05-15T12:00:51.804Z,98308.75
2023-05-15T12:03:25.858Z,98314.09
2023-05-15T12:05:59.703Z,98327.22
2023-05-15T12:08:35.386Z,98324.69
2023-05-15T12:11:02.927Z,98322.28
2023-05-15T12:13:31.425Z,98323.44
2023-05-15T12:15:58.614Z,98329.59
2023-05-15T12:18:25.458Z,98337.22
2023-05-15T12:20:53.407Z,98336.78
2023-05-15T12:23:23.562Z,98337.34
2023-05-15T12:25:55.042Z,98339.44
2023-05-15T12:28:22.558Z,98344.53
2023-05-15T12:30:49.920Z,98346.97
2023-05-15T12:33:16.984Z,98344.16
2023-05-15T12:35:49.569Z,98345.94
2023-05-15T12:38:16.750Z,98344.97
2023-05-15T12:40:46.734Z,98347.25
2023-05-15T12:43:14.257Z,98338.28
2023-05-15T12:45:42.031Z,98338.66
2023-05-15T12:48:14.584Z,98338.44
2023-05-15T12:50:44.555Z,98339.13
2023-05-15T12:53:14.574Z,98347.06
2023-05-15T12:55:41.770Z,98337.56
2023-05-15T12:58:10.704Z,98341.16
2023-05-15T13:00:40.374Z,98338.47
2023-05-15T13:03:10.126Z,98333.22
2023-05-15T13:05:42.038Z,98334.72
2023-05-15T13:08:08.696Z,98338.44
2023-05-15T13:10:38.033Z,98338.78
2023-05-15T13:13:04.688Z,98337.25
2023-05-15T13:15:37.730Z,98337.56
2023-05-15T13:18:14.365Z,98327.44
2023-05-15T13:20:54.309Z,98326.56
2023-05-15T13:23:24.942Z,98325.56
2023-05-15T13:25:51.606Z,98308.31
2023-05-15T13:28:18.266Z,98307.72
2023-05-15T13:30:45.036Z,98310.22
2023-05-15T13:33:12.789Z,98304.00
2023-05-15T13:35:41.338Z,98308.56
2023-05-15T13:38:11.079Z,98299.00
2023-05-15T13:40:38.261Z,98297.53
2023-05-15T13:43:06.761Z,98301.03
2023-05-15T13:45:33.606Z,98298.16
2023-05-15T13:48:00.427Z,98300.03
2023-05-15T13:50:27.404Z,98293.63
2023-05-15T13:52:57.160Z,98291.97
2023-05-15T13:55:25.793Z,98285.09
2023-05-15T13:57:53.217Z,98285.09
2023-05-15T14:00:20.484Z,98282.75
2023-05-15T14:02:47.254Z,98274.75
2023-05-15T14:05:15.605Z,98269.09
2023-05-15T14:07:42.450Z,98272.75
2023-05-15T14:10:09.960Z,98274.41
2023-05-15T14:12:37.445Z,98271.47
2023-05-15T14:15:04.459Z,98269.97
2023-05-15T14:17:31.183Z,98271.84
2023-05-15T14:19:57.791Z,98265.38
2023-05-15T14:22:25.194Z,98251.06
2023-05-15T14:24:53.151Z,98250.75
2023-05-15T14:27:20.158Z,98256.25
2023-05-15T14:29:48.472Z,98252.41
2023-05-15T14:32:16.232Z,98270.59
2023-05-15T14:34:43.136Z,98265.94
2023-05-15T14:37:09.863Z,98267.13
2023-05-15T14:39:36.453Z,98267.88
2023-05-15T14:42:03.573Z,98271.03
2023-05-15T14:44:30.123Z,98263.72
2023-05-15T14:47:13.613Z,98268.91
2023-05-15T14:49:40.665Z,98267.59
2023-05-15T14:52:10.267Z,98264.28
2023-05-15T14:54:38.051Z,98258.16
2023-05-15T14:57:05.137Z,98264.00
2023-05-15T14:59:31.917Z,98269.06
2023-05-15T15:01:58.714Z,98267.34
2023-05-15T15:04:26.803Z,98277.34
2023-05-15T15:06:56.923Z,98283.03
2023-05-15T15:09:25.636Z,98281.13
2023-05-15T15:11:53.867Z,98276.53
2023-05-15T15:14:20.654Z,98265.31
2023-05-15T15:16:47.572Z,98277.00
2023-05-15T15:19:16.709Z,98283.63
2023-05-15T15:21:45.147Z,98276.16
2023-05-15T15:24:11.873Z,98271.38
2023-05-15T15:26:38.620Z,98280.16
2023-05-15T15:29:05.316Z,98278.34
2023-05-15T15:31:32.113Z,98286.84
2023-05-15T15:33:59.208Z,98287.91
2023-05-15T15:36:26.227Z,98282.56
2023-05-15T15:38:52.997Z,98279.00
2023-05-15T15:41:21.648Z,98278.38
2023-05-15T15:43:48.434Z,98279.78
2023-05-15T15:46:15.170Z,98276.56
2023-05-15T15:48:41.859Z,98276.00
2023-05-15T15:51:08.536Z,98276.63
2023-05-15T15:53:35.207Z,98288.66
2023-05-15T15:56:01.897Z,98294.06
2023-05-15T15:58:29.700Z,98295.31
2023-05-15T16:00:57.401Z,98292.41
2023-05-15T16:03:24.456Z,98305.22
2023-05-15T16:05:51.833Z,98315.59
2023-05-15T16:08:18.684Z,98317.03
2023-05-15T16:10:45.407Z,98317.63
2023-05-15T16:13:12.194Z,98321.78
2023-05-15T16:15:38.931Z,98317.63
2023-05-15T16:18:07.148Z,98316.47
2023-05-15T16:20:35.208Z,98321.13
2023-05-15T16:23:02.237Z,98322.75
2023-05-15T16:25:28.937Z,98318.81
2023-05-15T16:27:55.529Z,98319.09
2023-05-15T16:30:23.402Z,98323.94
2023-05-15T16:32:53.098Z,98330.97
2023-05-15T16:35:22.324Z,98323.09
2023-05-15T16:37:49.212Z,98341.31
2023-05-15T16:40:16.120Z,98336.53
2023-05-15T16:42:43.160Z,98342.94
2023-05-15T16:45:10.360Z,98340.22
2023-05-15T16:47:39.392Z,98342.50
2023-05-15T16:50:07.425Z,98353.16
2023-05-15T16:52:34.172Z,98353.19
2023-05-15T16:55:00.858Z,98363.28
2023-05-15T16:57:27.621Z,98355.38
2023-05-15T16:59:54.435Z,98361.00
2023-05-15T17:02:21.207Z,98370.69
2023-05-15T17:04:48.003Z,98376.38
2023-05-15T17:07:14.613Z,98371.13
2023-05-15T17:09:43.142Z,98375.09
2023-05-15T17:12:10.076Z,98372.41
2023-05-15T17:14:36.829Z,98380.84
2023-05-15T17:17:03.851Z,98387.22
2023-05-15T17:19:32.234Z,98390.31
2023-05-15T17:21:58.896Z,98394.84
2023-05-15T17:24:27.221Z,98391.75
2023-05-15T17:26:59.632Z,98392.69
2023-05-15T17:29:26.461Z,98389.28
2023-05-15T17:31:53.303Z,98400.38
2023-05-15T17:34:20.059Z,98408.00
2023-05-15T17:36:46.827Z,98412.00
2023-05-15T17:39:13.440Z,98411.81
2023-05-15T17:41:40.155Z,98415.34
2023-05-15T17:44:06.848Z,98415.31
2023-05-15T17:46:33.670Z,98420.88
2023-05-15T17:49:00.792Z,98422.22
2023-05-15T17:51:27.411Z,98427.50
2023-05-15T17:53:54.098Z,98424.84
2023-05-15T17:56:21.743Z,98427.78
2023-05-15T17:58:48.481Z,98421.53
2023-05-15T18:01:15.961Z,98427.56
2023-05-15T18:03:42.594Z,98430.34
2023-05-15T18:06:09.330Z,98437.38
2023-05-15T18:08:35.963Z,98439.56
2023-05-15T18:11:06.232Z,98443.78
2023-05-15T18:13:38.003Z,98450.22
2023-05-15T18:16:05.304Z,98450.81
2023-05-15T18:18:32.035Z,98454.22
2023-05-15T18:20:58.675Z,98455.91
2023-05-15T18:23:25.385Z,98457.78
2023-05-15T18:25:52.129Z,98463.53
2023-05-15T18:28:18.969Z,98463.09
2023-05-15T18:30:46.751Z,98467.28
2023-05-15T18:33:13.711Z,98473.34
2023-05-15T18:35:40.395Z,98487.53
2023-05-15T18:38:10.554Z,98486.72
2023-05-15T18:40:37.188Z,98480.06
2023-05-15T18:43:07.989Z,98496.09
2023-05-15T18:45:34.791Z,98490.44
2023-05-15T18:48:01.568Z,98501.81
2023-05-15T18:50:28.341Z,98494.31
2023-05-15T18:52:55.070Z,98496.16
2023-05-15T18:55:22.139Z,98504.53
2023-05-15T18:57:48.803Z,98503.84
2023-05-15T19:00:23.766Z,98502.22
2023-05-15T19:03:00.660Z,98510.03
2023-05-15T19:05:27.730Z,98508.19
2023-05-15T19:07:54.639Z,98512.88
2023-05-15T19:10:21.223Z,98515.56
2023-05-15T19:12:47.862Z,98517.53
2023-05-15T19:15:15.881Z,98520.88
2023-05-15T19:17:42.580Z,98519.72
2023-05-15T19:20:09.635Z,98522.88
2023-05-15T19:22:36.247Z,98523.22
2023-05-15T19:25:02.896Z,98525.50
2023-05-15T19:27:29.910Z,98525.00
2023-05-15T19:29:57.493Z,98527.81
2023-05-15T19:32:24.288Z,98526.16
2023-05-15T19:34:51.785Z,98525.66
2023-05-15T19:37:18.428Z,98536.16
2023-05-15T19:39:45.151Z,98542.66
2023-05-15T19:42:11.778Z,98533.47
2023-05-15T19:44:38.568Z,98540.78
2023-05-15T19:47:05.312Z,98538.13
2023-05-15T19:49:31.921Z,98530.47
2023-05-15T19:51:58.540Z,98532.78
2023-05-15T19:54:25.445Z,98536.47
2023-05-15T19:56:52.514Z,98539.47
2023-05-15T19:59:19.195Z,98543.47
2023-05-15T20:01:46.372Z,98545.75
2023-05-15T20:04:13.769Z,98544.13
2023-05-15T20:06:40.412Z,98546.25
2023-05-15T20:09:07.033Z,98546.59
2023-05-15T20:11:33.868Z,98542.25
2023-05-15T20:14:00.759Z,98548.56
2023-05-15T20:16:27.549Z,98547.06
2023-05-15T20:18:55.396Z,98543.75
2023-05-15T20:21:22.230Z,98544.03
2023-05-15T20:23:49.335Z,98543.53
2023-05-15T20:26:16.080Z,98553.19
2023-05-15T20:28:45.207Z,98551.66
2023-05-15T20:31:12.030Z,98559.94
2023-05-15T20:33:38.793Z,98555.59
2023-05-15T20:36:05.558Z,98557.28
2023-05-15T20:38:33.910Z,98546.63
2023-05-15T20:41:00.665Z,98551.25
2023-05-15T20:43:27.427Z,98549.63
2023-05-15T20:45:54.076Z,98553.41
2023-05-15T20:48:20.829Z,98552.59
2023-05-15T20:50:47.538Z,98557.06
2023-05-15T20:53:14.251Z,98557.56
2023-05-15T20:55:40.977Z,98561.34
2023-05-15T20:58:07.859Z,98559.03
2023-05-15T21:00:34.858Z,98562.84
2023-05-15T21:03:01.808Z,98554.84
2023-05-15T21:05:28.552Z,98557.66
2023-05-15T21:07:55.363Z,98556.81
2023-05-15T21:10:22.065Z,98547.19
2023-05-15T21:12:48.795Z,98535.69
2023-05-15T21:15:15.475Z,98538.34
2023-05-15T21:17:42.210Z,98542.16
2023-05-15T21:20:09.366Z,98543.13
2023-05-15T21:22:36.547Z,98539.81
2023-05-15T21:25:04.337Z,98539.28
2023-05-15T21:27:35.258Z,98543.91
2023-05-15T21:30:02.017Z,98538.09
2023-05-15T21:32:29.179Z,98537.72
2023-05-15T21:34:55.902Z,98533.66
2023-05-15T21:37:22.496Z,98543.81
2023-05-15T21:39:49.153Z,98547.09
2023-05-15T21:42:15.846Z,98545.56
2023-05-15T21:44:42.495Z,98555.13
2023-05-15T21:47:09.079Z,98547.44
2023-05-15T21:49:35.654Z,98552.72
2023-05-15T21:52:02.309Z,98548.00
2023-05-15T21:54:29.163Z,98556.41
2023-05-15T21:56:55.830Z,98556.88
2023-05-15T21:59:22.419Z,98551.88
2023-05-15T22:01:49.170Z,98553.84
2023-05-15T22:04:15.874Z,98551.72
2023-05-15T22:06:43.553Z,98550.88
2023-05-15T22:09:10.117Z,98560.03
2023-05-15T22:11:36.761Z,98560.22
2023-05-15T22:14:03.467Z,98565.16
2023-05-15T22:16:30.282Z,98569.81
2023-05-15T22:18:57.044Z,98567.97
2023-05-15T22:21:23.861Z,98570.94
2023-05-15T22:23:50.482Z,98573.75
2023-05-15T22:26:19.793Z,98571.38
2023-05-15T22:28:47.301Z,98574.34
2023-05-15T22:31:14.444Z,98579.78
2023-05-15T22:33:41.131Z,98584.44
2023-05-15T22:36:07.944Z,98590.34
2023-05-15T22:38:34.592Z,98588.69
2023-05-15T22:41:01.248Z,98588.97
2023-05-15T22:43:27.893Z,98598.22
2023-05-15T22:45:54.553Z,98605.81
2023-05-15T22:48:21.198Z,98601.59
2023-05-15T22:50:47.917Z,98610.03
2023-05-15T22:53:15.074Z,98615.03
2023-05-15T22:55:42.303Z,98602.44
2023-05-15T22:58:09.002Z,98607.63
2023-05-15T23:00:35.969Z,98608.31
2023-05-15T23:03:02.775Z,98608.84
2023-05-15T23:05:29.604Z,98605.34
2023-05-15T23:07:56.447Z,98603.41
2023-05-15T23:10:23.144Z,98601.81
2023-05-15T23:12:49.812Z,98602.34
2023-05-15T23:15:16.649Z,98603.19
2023-05-15T23:17:43.454Z,98606.56
2023-05-15T23:20:10.653Z,98594.25
2023-05-15T23:22:37.385Z,98590.88
2023-05-15T23:25:04.352Z,98582.22
2023-05-15T23:27:31.152Z,98583.59
2023-05-15T23:29:57.911Z,98573.66
2023-05-15T23:32:24.659Z,98589.81
2023-05-15T23:34:52.125Z,98589.16
2023-05-15T23:37:18.957Z,98597.13
2023-05-15T23:39:45.608Z,98595.31
2023-05-15T23:42:12.556Z,98599.47
2023-05-15T23:44:39.190Z,98604.28
2023-05-15T23:47:06.678Z,98603.44
2023-05-15T23:49:33.722Z,98601.63
2023-05-15T23:52:00.638Z,98605.78
2023-05-15T23:54:27.934Z,98604.81
2023-05-15T23:56:54.896Z,98613.16
2023-05-15T23:59:21.531Z,98614.00
